Observation data for Turkey on 08/14/2019      Previous  Date  Next       Current Mesonet Observations  Soil Data  Daily Summary Page  Observations in Plain Language
KTUR 140500Z 05008KT 27/19 A301 RMK A01 T02650185  RH  063%=      5-min Rain = 0
KTUR 140505Z 05008KT 26/19 A301 RMK A01 T02640185  RH  063%=      5-min Rain = 0
KTUR 140510Z 05008KT 26/19 A301 RMK A01 T02630185  RH  064%=      5-min Rain = 0
KTUR 140515Z 05008KT 26/18 A301 RMK A01 T02620184  RH  064%=      5-min Rain = 0
KTUR 140520Z 04007KT 26/18 A3011 RMK A01 T02620184  RH  064%=      5-min Rain = 0
KTUR 140525Z 04007KT 26/18 A3011 RMK A01 T02620184  RH  064%=      5-min Rain = 0
KTUR 140530Z 05007KT 26/19 A3011 RMK A01 T02620185  RH  064%=      5-min Rain = 0
KTUR 140535Z 04007KT 26/19 A3011 RMK A01 T02600185  RH  065%=      5-min Rain = 0
KTUR 140540Z 02008KT 26/19 A3011 RMK A01 T02600185  RH  065%=      5-min Rain = 0
KTUR 140545Z 02008KT 26/19 A3012 RMK A01 T02610185  RH  065%=      5-min Rain = 0
KTUR 140550Z 02009KT 26/19 A3013 RMK A01 T02610185  RH  065%=      5-min Rain = 0
KTUR 140555Z 02009KT 26/19 A3013 RMK A01 T02620185  RH  064%=      5-min Rain = 0
KTUR 140600Z 02011KT 26/19 A3013 RMK A01 T02620185  RH  064%=      5-min Rain = 0
KTUR 140605Z 02011KT 26/19 A3013 RMK A01 T02620185  RH  064%=      5-min Rain = 0
KTUR 140610Z 03009KT 26/19 A3013 RMK A01 T02600186  RH  065%=      5-min Rain = 0
KTUR 140615Z 03009KT 26/19 A3012 RMK A01 T02590185  RH  065%=      5-min Rain = 0
KTUR 140620Z 02008KT 26/19 A3013 RMK A01 T02580185  RH  066%=      5-min Rain = 0
KTUR 140625Z 02009KT 26/19 A3013 RMK A01 T02560185  RH  067%=      5-min Rain = 0
KTUR 140630Z 02011KT 26/19 A3014 RMK A01 T02570186  RH  066%=      5-min Rain = 0
KTUR 140635Z 03010KT 26/19 A3014 RMK A01 T02560185  RH  066%=      5-min Rain = 0
KTUR 140640Z 03009KT 26/19 A3013 RMK A01 T02550185  RH  067%=      5-min Rain = 0
KTUR 140645Z 03009KT 25/19 A3013 RMK A01 T02540185  RH  067%=      5-min Rain = 0
KTUR 140650Z 03009KT 25/19 A3013 RMK A01 T02530185  RH  067%=      5-min Rain = 0
KTUR 140655Z 04010KT 25/19 A3013 RMK A01 T02540185  RH  067%=      5-min Rain = 0
KTUR 140700Z 04009KT 25/19 A3012 RMK A01 T02540185  RH  067%=      5-min Rain = 0
KTUR 140705Z 05008KT 25/18 A3012 RMK A01 T02530184  RH  067%=      5-min Rain = 0
KTUR 140710Z 05008KT 25/19 A3012 RMK A01 T02510185  RH  068%=      5-min Rain = 0
KTUR 140715Z 06006KT 25/19 A3012 RMK A01 T02490185  RH  069%=      5-min Rain = 0
KTUR 140720Z 07006KT 25/19 A3011 RMK A01 T02480185  RH  070%=      5-min Rain = 0
KTUR 140725Z 07006KT 25/19 A3011 RMK A01 T02470185  RH  070%=      5-min Rain = 0
KTUR 140730Z 06006KT 25/19 A3011 RMK A01 T02460185  RH  071%=      5-min Rain = 0
KTUR 140735Z 01012KT 24/19 A3012 RMK A01 T02440185  RH  071%=      5-min Rain = 0
KTUR 140740Z 01010KT 24/19 A3012 RMK A01 T02420185  RH  072%=      5-min Rain = 0
KTUR 140745Z 01010KT 24/19 A3012 RMK A01 T02410185  RH  073%=      5-min Rain = 0
KTUR 140750Z 01010KT 24/19 A3012 RMK A01 T02390185  RH  074%=      5-min Rain = 0
KTUR 140755Z 02009KT 24/19 A3012 RMK A01 T02380185  RH  074%=      5-min Rain = 0
KTUR 140800Z 01008KT 24/18 A3012 RMK A01 T02360184  RH  075%=      5-min Rain = 0
KTUR 140805Z 00009G15KT 24/18 A3012 RMK A01 T02350183  RH  075%=      5-min Rain = 0
KTUR 140810Z 36013KT 23/18 A3012 RMK A01 T02330178  RH  073%=      5-min Rain = 0
KTUR 140815Z 36012KT 23/17 A3012 RMK A01 T02310168  RH  069%=      5-min Rain = 0
KTUR 140820Z 35012KT 23/17 A3012 RMK A01 T02290165  RH  069%=      5-min Rain = 0
KTUR 140825Z 36014KT 23/16 A3012 RMK A01 T02270159  RH  067%=      5-min Rain = 0
KTUR 140830Z 35014KT 23/16 A3012 RMK A01 T02250157  RH  067%=      5-min Rain = 0
KTUR 140835Z 35014KT 22/15 A3013 RMK A01 T02230154  RH  066%=      5-min Rain = 0
KTUR 140840Z 35013KT 22/15 A3013 RMK A01 T02220152  RH  066%=      5-min Rain = 0
KTUR 140845Z 35010KT 22/15 A3013 RMK A01 T02200153  RH  067%=      5-min Rain = 0
KTUR 140850Z 34010KT 22/15 A3013 RMK A01 T02180151  RH  067%=      5-min Rain = 0
KTUR 140855Z 34011KT 22/15 A3013 RMK A01 T02160147  RH  066%=      5-min Rain = 0
KTUR 140900Z 36010G15KT 22/14 A3013 RMK A01 T02150143  RH  065%=      5-min Rain = 0
KTUR 140905Z 35011KT 21/14 A3013 RMK A01 T02140142  RH  065%=      5-min Rain = 0
KTUR 140910Z 34008KT 21/14 A3014 RMK A01 T02120142  RH  066%=      5-min Rain = 0
KTUR 140915Z 34006KT 21/14 A3014 RMK A01 T02100143  RH  067%=      5-min Rain = 0
KTUR 140920Z 34005KT 21/14 A3014 RMK A01 T02090143  RH  067%=      5-min Rain = 0
KTUR 140925Z 33004KT 21/14 A3015 RMK A01 T02080143  RH  068%=      5-min Rain = 0
KTUR 140930Z 33005KT 21/14 A3015 RMK A01 T02060144  RH  069%=      5-min Rain = 0
KTUR 140935Z 33008KT 21/15 A3015 RMK A01 T02050145  RH  070%=      5-min Rain = 0
KTUR 140940Z 34008KT 20/14 A3015 RMK A01 T02040144  RH  069%=      5-min Rain = 0
KTUR 140945Z 35008KT 21/14 A3016 RMK A01 T02050143  RH  069%=      5-min Rain = 0
KTUR 140950Z 35009KT 21/14 A3016 RMK A01 T02050143  RH  069%=      5-min Rain = 0
KTUR 140955Z 35009KT 20/14 A3016 RMK A01 T02040143  RH  069%=      5-min Rain = 0
KTUR 141000Z 34009KT 20/14 A3016 RMK A01 T02030143  RH  070%=      5-min Rain = 0
KTUR 141005Z 34010KT 20/14 A3016 RMK A01 T02020143  RH  070%=      5-min Rain = 0
KTUR 141010Z 34011KT 20/14 A3016 RMK A01 T02010142  RH  070%=      5-min Rain = 0
KTUR 141015Z 34010KT 20/14 A3016 RMK A01 T02020143  RH  070%=      5-min Rain = 0
KTUR 141020Z 34010KT 20/14 A3017 RMK A01 T02030143  RH  070%=      5-min Rain = 0
KTUR 141025Z 34010KT 20/14 A3017 RMK A01 T02030144  RH  070%=      5-min Rain = 0
KTUR 141030Z 34009KT 20/14 A3017 RMK A01 T02030144  RH  070%=      5-min Rain = 0
KTUR 141035Z 34007KT 20/14 A3017 RMK A01 T02020144  RH  071%=      5-min Rain = 0
KTUR 141040Z 34008KT 20/15 A3017 RMK A01 T02020145  RH  071%=      5-min Rain = 0
KTUR 141045Z 34008KT 20/15 A3017 RMK A01 T02020145  RH  071%=      5-min Rain = 0
KTUR 141050Z 34009KT 20/15 A3017 RMK A01 T02010146  RH  072%=      5-min Rain = 0
KTUR 141055Z 34008KT 20/15 A3017 RMK A01 T02000146  RH  072%=      5-min Rain = 0
KTUR 141100Z 34007KT 20/15 A3018 RMK A01 T02000147  RH  073%=      5-min Rain = 0
KTUR 141105Z 33008KT 20/15 A3018 RMK A01 T02010147  RH  073%=      5-min Rain = 0
KTUR 141110Z 33009KT 20/15 A3018 RMK A01 T02020148  RH  073%=      5-min Rain = 0
KTUR 141115Z 33007KT 20/15 A3018 RMK A01 T02030149  RH  073%=      5-min Rain = 0
KTUR 141120Z 33007KT 20/15 A3018 RMK A01 T02040150  RH  072%=      5-min Rain = 0
KTUR 141125Z 33008KT 21/15 A3018 RMK A01 T02050149  RH  072%=      5-min Rain = 0
KTUR 141130Z 33008KT 20/15 A3018 RMK A01 T02040148  RH  072%=      5-min Rain = 0
KTUR 141135Z 32007KT 20/15 A3018 RMK A01 T02020147  RH  072%=      5-min Rain = 0
KTUR 141140Z 32007KT 20/15 A3018 RMK A01 T02000147  RH  073%=      5-min Rain = 0
KTUR 141145Z 32007KT 20/15 A3018 RMK A01 T02000148  RH  074%=      5-min Rain = 0
KTUR 141150Z 33008KT 20/15 A3018 RMK A01 T01990149  RH  074%=      5-min Rain = 0
KTUR 141155Z 33009KT 20/15 A3018 RMK A01 T02000150  RH  075%=      5-min Rain = 0
KTUR 141200Z 33007KT 20/15 A3018 RMK A01 T02000151  RH  075%=      5-min Rain = 0
KTUR 141205Z 33008KT 20/15 A3019 RMK A01 T01980150  RH  075%=      5-min Rain = 0
KTUR 141210Z 32007KT 20/15 A3018 RMK A01 T01970148  RH  075%=      5-min Rain = 0
KTUR 141215Z 32006KT 20/15 A3018 RMK A01 T01970148  RH  075%=      5-min Rain = 0
KTUR 141220Z 32007KT 20/15 A3018 RMK A01 T01980148  RH  075%=      5-min Rain = 0
KTUR 141225Z 31008KT 20/15 A3018 RMK A01 T01980149  RH  075%=      5-min Rain = 0
KTUR 141230Z 31007KT 20/15 A3019 RMK A01 T02000149  RH  074%=      5-min Rain = 0
KTUR 141235Z 31009KT 20/15 A3019 RMK A01 T02020149  RH  073%=      5-min Rain = 0
KTUR 141240Z 30009KT 20/15 A3019 RMK A01 T02020149  RH  073%=      5-min Rain = 0
KTUR 141245Z 31009KT 20/15 A3019 RMK A01 T02040149  RH  072%=      5-min Rain = 0
KTUR 141250Z 31010G15KT 21/15 A3019 RMK A01 T02050149  RH  071%=      5-min Rain = 0
KTUR 141255Z 30009G14KT 21/15 A3019 RMK A01 T02080148  RH  070%=      5-min Rain = 0
KTUR 141300Z 31009G14KT 21/15 A3019 RMK A01 T02090148  RH  070%=      5-min Rain = 0
KTUR 141305Z 32010KT 21/15 A3019 RMK A01 T02110149  RH  069%=      5-min Rain = 0
KTUR 141310Z 32011KT 21/15 A3019 RMK A01 T02120149  RH  069%=      5-min Rain = 0
KTUR 141315Z 31011KT 21/15 A3019 RMK A01 T02120149  RH  069%=      5-min Rain = 0
KTUR 141320Z 31011KT 22/15 A302 RMK A01 T02150149  RH  068%=      5-min Rain = 0
KTUR 141325Z 31013G18KT 22/15 A3019 RMK A01 T02170149  RH  067%=      5-min Rain = 0
KTUR 141330Z 31011KT 22/15 A302 RMK A01 T02190148  RH  065%=      5-min Rain = 0
KTUR 141335Z 32009KT 22/15 A302 RMK A01 T02240150  RH  064%=      5-min Rain = 0
KTUR 141340Z 32012KT 23/15 A302 RMK A01 T02260150  RH  063%=      5-min Rain = 0
KTUR 141345Z 32013KT 23/15 A3021 RMK A01 T02250150  RH  064%=      5-min Rain = 0
KTUR 141350Z 32013KT 22/15 A3021 RMK A01 T02220149  RH  065%=      5-min Rain = 0
KTUR 141355Z 33011KT 22/15 A3021 RMK A01 T02220149  RH  065%=      5-min Rain = 0
KTUR 141400Z 33012KT 22/15 A3021 RMK A01 T02230150  RH  064%=      5-min Rain = 0
KTUR 141405Z 32011KT 22/15 A3021 RMK A01 T02230149  RH  064%=      5-min Rain = 0
KTUR 141410Z 32010KT 22/15 A3021 RMK A01 T02240149  RH  064%=      5-min Rain = 0
KTUR 141415Z 32010KT 23/15 A3021 RMK A01 T02250149  RH  063%=      5-min Rain = 0
KTUR 141420Z 32008KT 23/15 A3021 RMK A01 T02250148  RH  063%=      5-min Rain = 0
KTUR 141425Z 32011KT 23/15 A3022 RMK A01 T02260148  RH  063%=      5-min Rain = 0
KTUR 141430Z 32010KT 23/15 A3022 RMK A01 T02260148  RH  063%=      5-min Rain = 0
KTUR 141435Z 31009KT 23/15 A3021 RMK A01 T02290148  RH  062%=      5-min Rain = 0
KTUR 141440Z 32009KT 23/15 A3022 RMK A01 T02310149  RH  061%=      5-min Rain = 0
KTUR 141445Z 31010KT 24/15 A3022 RMK A01 T02350150  RH  060%=      5-min Rain = 0
KTUR 141450Z 32010KT 24/15 A3021 RMK A01 T02400151  RH  059%=      5-min Rain = 0
KTUR 141455Z 31009KT 24/15 A3021 RMK A01 T02430152  RH  058%=      5-min Rain = 0
KTUR 141500Z 32008KT 25/15 A3021 RMK A01 T02480153  RH  057%=      5-min Rain = 0
KTUR 141505Z 35006KT 25/16 A3021 RMK A01 T02520156  RH  056%=      5-min Rain = 0
KTUR 141510Z 34005KT 25/16 A3021 RMK A01 T02530157  RH  057%=      5-min Rain = 0
KTUR 141515Z 35005KT 25/16 A3021 RMK A01 T02530157  RH  057%=      5-min Rain = 0
KTUR 141520Z 04003KT 25/16 A302 RMK A01 T02540162  RH  058%=      5-min Rain = 0
KTUR 141525Z 05003KT 26/16 A302 RMK A01 T02560162  RH  057%=      5-min Rain = 0
KTUR 141530Z 06003KT 26/17 A302 RMK A01 T02580165  RH  058%=      5-min Rain = 0
KTUR 141535Z 09005KT 26/17 A3019 RMK A01 T02570167  RH  059%=      5-min Rain = 0
KTUR 141540Z 10004KT 26/17 A3019 RMK A01 T02560168  RH  059%=      5-min Rain = 0
KTUR 141545Z 11005KT 26/17 A3019 RMK A01 T02570170  RH  060%=      5-min Rain = 0
KTUR 141550Z 12006KT 26/17 A3018 RMK A01 T02590170  RH  059%=      5-min Rain = 0
KTUR 141555Z 12005KT 26/17 A3018 RMK A01 T02600170  RH  059%=      5-min Rain = 0
KTUR 141600Z 11005KT 27/17 A3018 RMK A01 T02670170  RH  057%=      5-min Rain = 0
KTUR 141605Z 11007KT 27/17 A3018 RMK A01 T02690171  RH  057%=      5-min Rain = 0
KTUR 141610Z 13005KT 27/17 A3018 RMK A01 T02680171  RH  057%=      5-min Rain = 0
KTUR 141615Z 17004KT 27/17 A3018 RMK A01 T02700171  RH  056%=      5-min Rain = 0
KTUR 141620Z 21004KT 27/17 A3018 RMK A01 T02700172  RH  056%=      5-min Rain = 0
KTUR 141625Z 17002KT 27/17 A3018 RMK A01 T02720171  RH  055%=      5-min Rain = 0
KTUR 141630Z 18001KT 28/17 A3018 RMK A01 T02750170  RH  054%=      5-min Rain = 0
KTUR 141635Z 12002KT 28/17 A3018 RMK A01 T02810172  RH  053%=      5-min Rain = 0
KTUR 141640Z 25002KT 28/17 A3017 RMK A01 T02830173  RH  052%=      5-min Rain = 0
KTUR 141645Z 23003KT 28/17 A3017 RMK A01 T02840173  RH  052%=      5-min Rain = 0
KTUR 141650Z 25003KT 28/17 A3017 RMK A01 T02820172  RH  052%=      5-min Rain = 0
KTUR 141655Z 27002KT 28/17 A3017 RMK A01 T02830173  RH  052%=      5-min Rain = 0
KTUR 141700Z 00005KT 29/17 A3018 RMK A01 T02890169  RH  049%=      5-min Rain = 0
KTUR 141705Z 33007G13KT 29/17 A3018 RMK A01 T02940168  RH  048%=      5-min Rain = 0
KTUR 141710Z 33005KT 29/17 A3017 RMK A01 T02930168  RH  048%=      5-min Rain = 0
KTUR 141715Z 31006KT 30/17 A3017 RMK A01 T02950169  RH  048%=      5-min Rain = 0
KTUR 141720Z 33009KT 30/17 A3017 RMK A01 T03000167  RH  046%=      5-min Rain = 0
KTUR 141725Z 34008G13KT 30/17 A3017 RMK A01 T03000165  RH  045%=      5-min Rain = 0
KTUR 141730Z 33011G16KT 30/17 A3017 RMK A01 T03010166  RH  045%=      5-min Rain = 0
KTUR 141735Z 33012KT 30/17 A3016 RMK A01 T03030166  RH  045%=      5-min Rain = 0
KTUR 141740Z 35010KT 30/17 A3016 RMK A01 T03040165  RH  044%=      5-min Rain = 0
KTUR 141745Z 34009KT 30/16 A3016 RMK A01 T03010163  RH  045%=      5-min Rain = 0
KTUR 141750Z 35011G19KT 31/15 A3017 RMK A01 T03060154  RH  041%=      5-min Rain = 0
KTUR 141755Z 36010KT 30/16 A3016 RMK A01 T03040155  RH  041%=      5-min Rain = 0
KTUR 141800Z 01012KT 31/15 A3016 RMK A01 T03100150  RH  039%=      5-min Rain = 0
KTUR 141805Z 34012G18KT 31/15 A3016 RMK A01 T03050147  RH  039%=      5-min Rain = 0
KTUR 141810Z 35009G16KT 30/15 A3016 RMK A01 T03030153  RH  041%=      5-min Rain = 0
KTUR 141815Z 34009G16KT 31/16 A3015 RMK A01 T03050156  RH  041%=      5-min Rain = 0
KTUR 141820Z 35010G15KT 31/16 A3015 RMK A01 T03120155  RH  040%=      5-min Rain = 0
KTUR 141825Z 35011KT 31/15 A3015 RMK A01 T03090153  RH  040%=      5-min Rain = 0
KTUR 141830Z 33010KT 31/15 A3015 RMK A01 T03070150  RH  039%=      5-min Rain = 0
KTUR 141835Z 00011KT 31/15 A3015 RMK A01 T03080149  RH  039%=      5-min Rain = 0
KTUR 141840Z 01008G14KT 31/15 A3015 RMK A01 T03090149  RH  039%=      5-min Rain = 0
KTUR 141845Z 32008KT 31/15 A3015 RMK A01 T03110151  RH  039%=      5-min Rain = 0
KTUR 141850Z 01011KT 31/15 A3015 RMK A01 T03100151  RH  039%=      5-min Rain = 0
KTUR 141855Z 35008G17KT 31/15 A3015 RMK A01 T03080153  RH  040%=      5-min Rain = 0
KTUR 141900Z 35007G17KT 31/16 A3015 RMK A01 T03130156  RH  040%=      5-min Rain = 0
KTUR 141905Z 05004G11KT 31/16 A3014 RMK A01 T03140155  RH  039%=      5-min Rain = 0
KTUR 141910Z 07006KT 31/16 A3014 RMK A01 T03130158  RH  040%=      5-min Rain = 0
KTUR 141915Z 01008KT 32/16 A3014 RMK A01 T03190157  RH  039%=      5-min Rain = 0
KTUR 141920Z 01005KT 32/15 A3014 RMK A01 T03150154  RH  039%=      5-min Rain = 0
KTUR 141925Z 05007KT 31/15 A3013 RMK A01 T03140153  RH  039%=      5-min Rain = 0
KTUR 141930Z 09007KT 32/15 A3013 RMK A01 T03160153  RH  038%=      5-min Rain = 0
KTUR 141935Z 04005KT 32/16 A3012 RMK A01 T03170155  RH  038%=      5-min Rain = 0
KTUR 141940Z 04003G9KT 32/16 A3012 RMK A01 T03240158  RH  038%=      5-min Rain = 0
KTUR 141945Z 06006KT 32/16 A3011 RMK A01 T03210157  RH  038%=      5-min Rain = 0
KTUR 141950Z 15005KT 32/16 A3011 RMK A01 T03210156  RH  038%=      5-min Rain = 0
KTUR 141955Z 06005KT 32/15 A3011 RMK A01 T03200154  RH  038%=      5-min Rain = 0
KTUR 142000Z 08005KT 33/16 A3011 RMK A01 T03260156  RH  037%=      5-min Rain = 0
KTUR 142005Z 07006KT 33/15 A3011 RMK A01 T03290154  RH  036%=      5-min Rain = 0
KTUR 142010Z 08005G10KT 32/15 A3011 RMK A01 T03230154  RH  037%=      5-min Rain = 0
KTUR 142015Z 15006KT 33/15 A301 RMK A01 T03260152  RH  036%=      5-min Rain = 0
KTUR 142020Z 18004KT 33/15 A301 RMK A01 T03270153  RH  036%=      5-min Rain = 0
KTUR 142025Z 13004KT 33/15 A301 RMK A01 T03320154  RH  035%=      5-min Rain = 0
KTUR 142030Z 06004G9KT 33/15 A301 RMK A01 T03320154  RH  035%=      5-min Rain = 0
KTUR 142035Z 32002KT 33/16 A301 RMK A01 T03320156  RH  036%=      5-min Rain = 0
KTUR 142040Z 05005KT 33/15 A3009 RMK A01 T03310152  RH  035%=      5-min Rain = 0
KTUR 142045Z 09005KT 33/15 A3009 RMK A01 T03330152  RH  034%=      5-min Rain = 0
KTUR 142050Z 02002G7KT 33/15 A3009 RMK A01 T03320150  RH  034%=      5-min Rain = 0
KTUR 142055Z 02007KT 34/15 A3009 RMK A01 T03360150  RH  033%=      5-min Rain = 0
KTUR 142100Z 03004G12KT 34/15 A3008 RMK A01 T03360150  RH  033%=      5-min Rain = 0
KTUR 142105Z 00007G12KT 34/15 A3008 RMK A01 T03350147  RH  033%=      5-min Rain = 0
KTUR 142110Z 35007KT 34/15 A3008 RMK A01 T03350146  RH  033%=      5-min Rain = 0
KTUR 142115Z 33005KT 34/15 A3007 RMK A01 T03360147  RH  033%=      5-min Rain = 0
KTUR 142120Z 34004G9KT 34/15 A3007 RMK A01 T03370149  RH  033%=      5-min Rain = 0
KTUR 142125Z 04004KT 34/15 A3007 RMK A01 T03430150  RH  032%=      5-min Rain = 0
KTUR 142130Z 05007G12KT 34/15 A3007 RMK A01 T03430149  RH  032%=      5-min Rain = 0
KTUR 142135Z 10007G12KT 34/15 A3006 RMK A01 T03400151  RH  033%=      5-min Rain = 0
KTUR 142140Z 11005KT 34/15 A3006 RMK A01 T03390151  RH  033%=      5-min Rain = 0
KTUR 142145Z 09007KT 34/15 A3006 RMK A01 T03420151  RH  033%=      5-min Rain = 0
KTUR 142150Z 06007G12KT 34/15 A3006 RMK A01 T03410153  RH  033%=      5-min Rain = 0
KTUR 142155Z 03006G11KT 34/15 A3006 RMK A01 T03390153  RH  033%=      5-min Rain = 0
KTUR 142200Z 07005KT 34/16 A3005 RMK A01 T03400156  RH  034%=      5-min Rain = 0
KTUR 142205Z 08004G9KT 34/16 A3005 RMK A01 T03370155  RH  034%=      5-min Rain = 0
KTUR 142210Z 04005G10KT 34/16 A3005 RMK A01 T03420157  RH  034%=      5-min Rain = 0
KTUR 142215Z 04007KT 34/16 A3005 RMK A01 T03420159  RH  034%=      5-min Rain = 0
KTUR 142220Z 06006KT 34/16 A3005 RMK A01 T03420158  RH  034%=      5-min Rain = 0
KTUR 142225Z 03004G9KT 34/16 A3005 RMK A01 T03440158  RH  034%=      5-min Rain = 0
KTUR 142230Z 02010KT 35/15 A3005 RMK A01 T03460154  RH  033%=      5-min Rain = 0
KTUR 142235Z 01005KT 34/15 A3005 RMK A01 T03400152  RH  033%=      5-min Rain = 0
KTUR 142240Z 33005KT 34/15 A3005 RMK A01 T03400151  RH  033%=      5-min Rain = 0
KTUR 142245Z 36008G14KT 34/15 A3005 RMK A01 T03420150  RH  032%=      5-min Rain = 0
KTUR 142250Z 03007KT 35/15 A3005 RMK A01 T03450151  RH  032%=      5-min Rain = 0
KTUR 142255Z 02006KT 34/15 A3005 RMK A01 T03420147  RH  032%=      5-min Rain = 0
KTUR 142300Z 00004KT 34/15 A3005 RMK A01 T03420146  RH  032%=      5-min Rain = 0
KTUR 142305Z 00007G16KT 35/15 A3005 RMK A01 T03450145  RH  031%=      5-min Rain = 0
KTUR 142310Z 05005KT 34/15 A3005 RMK A01 T03430147  RH  032%=      5-min Rain = 0
KTUR 142315Z 03004KT 34/14 A3005 RMK A01 T03410144  RH  031%=      5-min Rain = 0
KTUR 142320Z 01008KT 34/14 A3005 RMK A01 T03440142  RH  030%=      5-min Rain = 0
KTUR 142325Z 35006KT 34/14 A3005 RMK A01 T03410140  RH  030%=      5-min Rain = 0
KTUR 142330Z 03004KT 34/14 A3005 RMK A01 T03390138  RH  030%=      5-min Rain = 0
KTUR 142335Z 00007KT 34/14 A3005 RMK A01 T03440136  RH  029%=      5-min Rain = 0
KTUR 142340Z 03005KT 34/14 A3005 RMK A01 T03430135  RH  029%=      5-min Rain = 0
KTUR 142345Z 35005G12KT 34/14 A3005 RMK A01 T03420135  RH  029%=      5-min Rain = 0
KTUR 142350Z 05008KT 34/13 A3005 RMK A01 T03420134  RH  029%=      5-min Rain = 0
KTUR 142355Z 05007KT 34/13 A3005 RMK A01 T03420133  RH  029%=      5-min Rain = 0
KTUR 150000Z 02007KT 34/13 A3005 RMK A01 T03400133  RH  029%=      5-min Rain = 0
KTUR 150005Z 03007KT 34/13 A3005 RMK A01 T03390134  RH  030%=      5-min Rain = 0
KTUR 150010Z 04005KT 34/14 A3005 RMK A01 T03400135  RH  030%=      5-min Rain = 0
KTUR 150015Z 06008G13KT 34/15 A3005 RMK A01 T03380145  RH  032%=      5-min Rain = 0
KTUR 150020Z 07008KT 33/16 A3004 RMK A01 T03330155  RH  035%=      5-min Rain = 0
KTUR 150025Z 08008G13KT 33/16 A3004 RMK A01 T03320156  RH  036%=      5-min Rain = 0
KTUR 150030Z 08007KT 33/16 A3005 RMK A01 T03310156  RH  036%=      5-min Rain = 0
KTUR 150035Z 09008KT 33/16 A3005 RMK A01 T03300156  RH  036%=      5-min Rain = 0
KTUR 150040Z 09009KT 33/16 A3005 RMK A01 T03280155  RH  036%=      5-min Rain = 0
KTUR 150045Z 09009KT 33/16 A3005 RMK A01 T03260155  RH  036%=      5-min Rain = 0
KTUR 150050Z 08009KT 32/16 A3005 RMK A01 T03230155  RH  037%=      5-min Rain = 0
KTUR 150055Z 08009KT 32/15 A3005 RMK A01 T03230154  RH  037%=      5-min Rain = 0
KTUR 150100Z 08009KT 32/16 A3005 RMK A01 T03230155  RH  037%=      5-min Rain = 0
KTUR 150105Z 09009KT 32/16 A3006 RMK A01 T03220155  RH  037%=      5-min Rain = 0
KTUR 150110Z 08009KT 32/16 A3006 RMK A01 T03200155  RH  038%=      5-min Rain = 0
KTUR 150115Z 08008KT 32/15 A3006 RMK A01 T03160153  RH  038%=      5-min Rain = 0
KTUR 150120Z 08008KT 31/15 A3006 RMK A01 T03130152  RH  038%=      5-min Rain = 0
KTUR 150125Z 08007KT 31/15 A3006 RMK A01 T03110151  RH  039%=      5-min Rain = 0
KTUR 150130Z 08008KT 31/15 A3006 RMK A01 T03090152  RH  039%=      5-min Rain = 0
KTUR 150135Z 08009KT 31/15 A3006 RMK A01 T03080151  RH  040%=      5-min Rain = 0
KTUR 150140Z 07008KT 31/15 A3007 RMK A01 T03070151  RH  040%=      5-min Rain = 0
KTUR 150145Z 07007KT 31/15 A3007 RMK A01 T03050151  RH  040%=      5-min Rain = 0
KTUR 150150Z 07008KT 30/15 A3007 RMK A01 T03040150  RH  040%=      5-min Rain = 0
KTUR 150155Z 07007KT 30/15 A3007 RMK A01 T03030151  RH  040%=      5-min Rain = 0
KTUR 150200Z 07007KT 30/15 A3008 RMK A01 T03010151  RH  041%=      5-min Rain = 0
KTUR 150205Z 07007KT 30/15 A3008 RMK A01 T03000153  RH  042%=      5-min Rain = 0
KTUR 150210Z 07007KT 30/16 A3008 RMK A01 T02990156  RH  043%=      5-min Rain = 0
KTUR 150215Z 08008KT 30/16 A3009 RMK A01 T02980160  RH  044%=      5-min Rain = 0
KTUR 150220Z 08007KT 30/16 A3009 RMK A01 T02950161  RH  046%=      5-min Rain = 0
KTUR 150225Z 08007KT 29/16 A3009 RMK A01 T02920163  RH  047%=      5-min Rain = 0
KTUR 150230Z 08007KT 29/17 A3009 RMK A01 T02910165  RH  048%=      5-min Rain = 0
KTUR 150235Z 08007KT 29/17 A3009 RMK A01 T02900166  RH  048%=      5-min Rain = 0
KTUR 150240Z 08008KT 29/17 A3009 RMK A01 T02880167  RH  049%=      5-min Rain = 0
KTUR 150245Z 08009KT 29/17 A3009 RMK A01 T02880168  RH  049%=      5-min Rain = 0
KTUR 150250Z 08008KT 29/17 A3009 RMK A01 T02860168  RH  050%=      5-min Rain = 0
KTUR 150255Z 08008KT 29/17 A301 RMK A01 T02850168  RH  050%=      5-min Rain = 0
KTUR 150300Z 07009KT 29/17 A301 RMK A01 T02860167  RH  050%=      5-min Rain = 0
KTUR 150305Z 07009KT 29/17 A301 RMK A01 T02860167  RH  050%=      5-min Rain = 0
KTUR 150310Z 07009KT 29/17 A301 RMK A01 T02850167  RH  050%=      5-min Rain = 0
KTUR 150315Z 07008KT 28/17 A301 RMK A01 T02840168  RH  050%=      5-min Rain = 0
KTUR 150320Z 08008KT 28/17 A3011 RMK A01 T02830167  RH  051%=      5-min Rain = 0
KTUR 150325Z 08008KT 28/17 A3011 RMK A01 T02810167  RH  051%=      5-min Rain = 0
KTUR 150330Z 08008KT 28/17 A3011 RMK A01 T02800167  RH  052%=      5-min Rain = 0
KTUR 150335Z 09008KT 28/17 A3011 RMK A01 T02800167  RH  051%=      5-min Rain = 0
KTUR 150340Z 08008KT 28/17 A3011 RMK A01 T02800166  RH  051%=      5-min Rain = 0
KTUR 150345Z 09008KT 28/17 A3011 RMK A01 T02790166  RH  051%=      5-min Rain = 0
KTUR 150350Z 09008KT 28/17 A3012 RMK A01 T02780165  RH  051%=      5-min Rain = 0
KTUR 150355Z 08008KT 28/17 A3012 RMK A01 T02780165  RH  051%=      5-min Rain = 0
KTUR 150400Z 08008KT 28/16 A3012 RMK A01 T02780164  RH  051%=      5-min Rain = 0
KTUR 150405Z 08008KT 28/16 A3012 RMK A01 T02780163  RH  051%=      5-min Rain = 0
KTUR 150410Z 08007KT 28/16 A3012 RMK A01 T02770163  RH  051%=      5-min Rain = 0
KTUR 150415Z 08007KT 28/16 A3012 RMK A01 T02750163  RH  052%=      5-min Rain = 0
KTUR 150420Z 08008KT 27/16 A3012 RMK A01 T02740163  RH  052%=      5-min Rain = 0
KTUR 150425Z 08008KT 27/16 A3012 RMK A01 T02730163  RH  052%=      5-min Rain = 0
KTUR 150430Z 08007KT 27/16 A3013 RMK A01 T02710163  RH  053%=      5-min Rain = 0
KTUR 150435Z 08006KT 27/16 A3013 RMK A01 T02710163  RH  053%=      5-min Rain = 0
KTUR 150440Z 08006KT 27/16 A3013 RMK A01 T02690164  RH  054%=      5-min Rain = 0
KTUR 150445Z 08006KT 27/16 A3013 RMK A01 T02680164  RH  054%=      5-min Rain = 0
KTUR 150450Z 08006KT 27/16 A3013 RMK A01 T02670163  RH  054%=      5-min Rain = 0
KTUR 150455Z 08007KT 27/16 A3013 RMK A01 T02670163  RH  054%=      5-min Rain = 0

Page generated in 0.0098 seconds.